createdAt,value
2019-03-06T00:00:54.746Z,29.23
2019-03-06T00:02:31.085Z,36.93
2019-03-06T00:04:07.265Z,33.07
2019-03-06T00:05:43.478Z,30.33
2019-03-06T00:07:20.291Z,32.53
2019-03-06T00:08:57.824Z,33.03
2019-03-06T00:10:35.679Z,30.53
2019-03-06T00:12:11.886Z,33.87
2019-03-06T00:13:48.307Z,31.80
2019-03-06T00:15:24.558Z,33.60
2019-03-06T00:17:01.652Z,29.90
2019-03-06T00:18:37.777Z,31.63
2019-03-06T00:20:14.077Z,31.40
2019-03-06T00:21:51.553Z,33.13
2019-03-06T00:23:27.679Z,34.60
2019-03-06T00:25:06.367Z,33.67
2019-03-06T00:26:42.509Z,31.53
2019-03-06T00:28:18.654Z,34.40
2019-03-06T00:29:54.854Z,31.63
2019-03-06T00:31:31.049Z,32.20
2019-03-06T00:33:07.352Z,32.87
2019-03-06T00:34:43.579Z,33.63
2019-03-06T00:36:20.460Z,29.50
2019-03-06T00:37:56.592Z,29.83
2019-03-06T00:39:34.353Z,32.07
2019-03-06T00:41:12.141Z,31.60
2019-03-06T00:42:51.672Z,29.73
2019-03-06T00:44:27.737Z,33.40
2019-03-06T00:46:03.963Z,31.67
2019-03-06T00:47:40.343Z,33.33
2019-03-06T00:49:16.406Z,33.23
2019-03-06T00:50:52.720Z,32.80
2019-03-06T00:52:29.012Z,35.80
2019-03-06T00:54:05.332Z,36.40
2019-03-06T00:55:41.391Z,34.27
2019-03-06T00:57:17.392Z,31.53
2019-03-06T00:58:53.561Z,36.47
2019-03-06T01:00:29.715Z,36.93
2019-03-06T01:02:05.818Z,37.23
2019-03-06T01:03:41.862Z,34.33
2019-03-06T01:05:18.990Z,34.17
2019-03-06T01:06:55.596Z,31.53
2019-03-06T01:08:31.900Z,35.43
2019-03-06T01:10:14.474Z,36.60
2019-03-06T01:11:50.701Z,34.60
2019-03-06T01:13:26.907Z,33.90
2019-03-06T01:15:03.204Z,37.13
2019-03-06T01:16:39.345Z,34.73
2019-03-06T01:18:16.832Z,34.13
2019-03-06T01:19:52.878Z,33.97
2019-03-06T01:21:29.220Z,36.37
2019-03-06T01:23:05.424Z,33.00
2019-03-06T01:24:41.462Z,38.97
2019-03-06T01:26:17.754Z,36.23
2019-03-06T01:27:54.080Z,41.57
2019-03-06T01:29:30.218Z,36.73
2019-03-06T01:31:18.077Z,35.40
2019-03-06T01:33:06.106Z,33.93
2019-03-06T01:34:49.532Z,38.17
2019-03-06T01:36:36.108Z,36.47
2019-03-06T01:38:29.895Z,35.67
2019-03-06T01:40:11.063Z,35.47
2019-03-06T01:41:58.088Z,33.77
2019-03-06T01:43:35.875Z,35.10
2019-03-06T01:45:12.156Z,33.40
2019-03-06T01:46:48.394Z,31.53
2019-03-06T01:48:24.488Z,35.40
2019-03-06T01:50:00.696Z,32.60
2019-03-06T01:51:36.823Z,30.63
2019-03-06T01:53:13.039Z,31.30
2019-03-06T01:54:49.181Z,33.83
2019-03-06T01:56:25.473Z,35.17
2019-03-06T01:58:01.470Z,32.40
2019-03-06T01:59:37.707Z,33.97
2019-03-06T02:01:13.740Z,33.63
2019-03-06T02:02:49.847Z,35.60
2019-03-06T02:04:26.052Z,33.77
2019-03-06T02:06:02.265Z,36.70
2019-03-06T02:07:38.848Z,40.57
2019-03-06T02:09:20.239Z,36.07
2019-03-06T02:10:56.157Z,38.43
2019-03-06T02:12:32.173Z,37.00
2019-03-06T02:14:08.257Z,37.97
2019-03-06T02:15:44.451Z,41.03
2019-03-06T02:17:20.651Z,40.83
2019-03-06T02:18:57.064Z,41.30
2019-03-06T02:20:33.159Z,40.10
2019-03-06T02:22:09.297Z,42.37
2019-03-06T02:23:45.524Z,39.40
2019-03-06T02:25:21.719Z,36.07
2019-03-06T02:26:57.926Z,34.87
2019-03-06T02:28:34.147Z,36.90
2019-03-06T02:30:22.522Z,38.97
2019-03-06T02:31:58.579Z,36.30
2019-03-06T02:33:34.854Z,35.13
2019-03-06T02:35:12.503Z,33.57
2019-03-06T02:36:48.672Z,33.13
2019-03-06T02:38:24.921Z,36.90
2019-03-06T02:40:01.061Z,34.70
2019-03-06T02:41:37.470Z,35.43
2019-03-06T02:43:13.555Z,37.50
2019-03-06T02:44:49.797Z,31.60
2019-03-06T02:46:26.025Z,33.80
2019-03-06T02:48:02.054Z,34.30
2019-03-06T02:49:38.027Z,34.20
2019-03-06T02:51:15.521Z,33.07
2019-03-06T02:52:51.671Z,36.57
2019-03-06T02:54:27.889Z,34.60
2019-03-06T02:56:04.034Z,33.60
2019-03-06T02:57:41.911Z,36.30
2019-03-06T02:59:19.615Z,33.00
2019-03-06T03:00:57.464Z,33.07
2019-03-06T03:02:38.210Z,34.23
2019-03-06T03:04:16.183Z,34.53
2019-03-06T03:06:06.162Z,42.07
2019-03-06T03:07:42.346Z,35.57
2019-03-06T03:09:19.790Z,37.33
2019-03-06T03:10:55.902Z,35.30
2019-03-06T03:12:32.037Z,32.33
2019-03-06T03:14:08.277Z,33.50
2019-03-06T03:15:44.308Z,36.43
2019-03-06T03:17:20.553Z,33.57
2019-03-06T03:18:56.961Z,37.50
2019-03-06T03:20:33.028Z,35.10
2019-03-06T03:22:10.526Z,34.03
2019-03-06T03:23:46.760Z,36.50
2019-03-06T03:25:22.978Z,35.00
2019-03-06T03:26:59.192Z,29.40
2019-03-06T03:28:35.260Z,35.00
2019-03-06T03:30:15.177Z,30.50
2019-03-06T03:31:51.347Z,34.37
2019-03-06T03:33:27.615Z,32.07
2019-03-06T03:35:03.952Z,32.10
2019-03-06T03:36:40.017Z,32.53
2019-03-06T03:38:16.082Z,34.83
2019-03-06T03:39:52.080Z,33.97
2019-03-06T03:41:28.375Z,34.37
2019-03-06T03:43:04.519Z,34.37
2019-03-06T03:44:40.755Z,30.03
2019-03-06T03:46:16.823Z,34.57
2019-03-06T03:47:53.030Z,38.57
2019-03-06T03:49:29.088Z,32.80
2019-03-06T03:51:06.596Z,29.83
2019-03-06T03:52:42.902Z,35.30
2019-03-06T03:54:19.097Z,37.73
2019-03-06T03:55:55.169Z,32.40
2019-03-06T03:57:31.762Z,35.43
2019-03-06T03:59:07.901Z,34.70
2019-03-06T04:00:44.161Z,31.27
2019-03-06T04:02:20.624Z,35.27
2019-03-06T04:03:56.896Z,31.13
2019-03-06T04:05:33.018Z,36.50
2019-03-06T04:07:09.234Z,31.57
2019-03-06T04:08:46.725Z,38.77
2019-03-06T04:10:22.892Z,35.63
2019-03-06T04:11:58.958Z,40.37
2019-03-06T04:13:34.923Z,39.57
2019-03-06T04:15:14.889Z,38.13
2019-03-06T04:16:50.924Z,34.93
2019-03-06T04:18:26.914Z,36.33
2019-03-06T04:20:03.078Z,40.37
2019-03-06T04:21:39.132Z,35.37
2019-03-06T04:23:15.283Z,39.37
2019-03-06T04:24:51.410Z,36.47
2019-03-06T04:26:27.550Z,39.60
2019-03-06T04:28:04.045Z,42.30
2019-03-06T04:29:40.225Z,39.53
2019-03-06T04:31:16.441Z,39.33
2019-03-06T04:32:52.649Z,38.20
2019-03-06T04:34:28.608Z,38.83
2019-03-06T04:36:04.816Z,37.07
2019-03-06T04:37:40.945Z,35.63
2019-03-06T04:39:16.915Z,41.73
2019-03-06T04:40:53.131Z,39.00
2019-03-06T04:42:29.211Z,35.07
2019-03-06T04:44:05.256Z,44.77
2019-03-06T04:45:41.319Z,43.10
2019-03-06T04:47:17.625Z,38.40
2019-03-06T04:48:53.695Z,40.47
2019-03-06T04:50:29.838Z,39.20
2019-03-06T04:52:05.922Z,41.97
2019-03-06T04:53:43.352Z,44.73
2019-03-06T04:55:19.629Z,37.83
2019-03-06T04:56:55.584Z,41.73
2019-03-06T04:58:31.517Z,47.13
2019-03-06T05:00:19.226Z,45.83
2019-03-06T05:01:55.431Z,44.63
2019-03-06T05:03:31.456Z,42.07
2019-03-06T05:05:07.958Z,41.00
2019-03-06T05:06:43.999Z,39.70
2019-03-06T05:08:19.983Z,46.97
2019-03-06T05:09:56.278Z,49.93
2019-03-06T05:11:32.171Z,43.20
2019-03-06T05:13:08.138Z,47.70
2019-03-06T05:14:44.376Z,46.40
2019-03-06T05:16:22.176Z,46.30
2019-03-06T05:18:05.566Z,43.40
2019-03-06T05:19:41.984Z,45.90
2019-03-06T05:21:19.402Z,51.63
2019-03-06T05:22:55.710Z,46.83
2019-03-06T05:24:31.810Z,47.57
2019-03-06T05:26:08.067Z,40.03
2019-03-06T05:27:44.303Z,44.93
2019-03-06T05:29:20.367Z,43.57
2019-03-06T05:30:56.452Z,40.67
2019-03-06T05:32:37.091Z,45.07
2019-03-06T05:34:13.250Z,41.90
2019-03-06T05:36:12.912Z,48.37
2019-03-06T05:37:57.018Z,43.77
2019-03-06T05:39:32.983Z,43.47
2019-03-06T05:41:08.954Z,42.80
2019-03-06T05:42:45.284Z,43.00
2019-03-06T05:44:21.388Z,41.53
2019-03-06T05:45:57.452Z,43.83
2019-03-06T05:47:33.607Z,44.53
2019-03-06T05:49:09.670Z,38.93
2019-03-06T05:50:45.803Z,36.43
2019-03-06T05:52:21.963Z,37.10
2019-03-06T05:53:58.175Z,38.67
2019-03-06T05:55:34.260Z,41.33
2019-03-06T05:57:10.252Z,43.00
2019-03-06T05:58:46.231Z,37.13
2019-03-06T06:00:27.004Z,38.30
2019-03-06T06:02:03.151Z,41.67
2019-03-06T06:03:39.359Z,36.63
2019-03-06T06:05:15.932Z,38.60
2019-03-06T06:06:51.893Z,40.23
2019-03-06T06:08:27.898Z,38.53
2019-03-06T06:10:04.777Z,39.27
2019-03-06T06:11:40.843Z,42.10
2019-03-06T06:13:16.743Z,35.87
2019-03-06T06:14:52.880Z,36.73
2019-03-06T06:16:29.302Z,34.20
2019-03-06T06:18:05.604Z,33.63
2019-03-06T06:19:41.747Z,34.67
2019-03-06T06:21:22.407Z,34.07
2019-03-06T06:23:16.300Z,35.40
2019-03-06T06:24:52.432Z,34.27
2019-03-06T06:26:28.578Z,35.93
2019-03-06T06:28:04.780Z,29.50
2019-03-06T06:29:40.899Z,38.80
2019-03-06T06:31:16.859Z,32.97
2019-03-06T06:32:53.096Z,37.27
2019-03-06T06:34:29.777Z,39.30
2019-03-06T06:36:06.019Z,36.03
2019-03-06T06:37:42.146Z,37.47
2019-03-06T06:39:18.258Z,35.63
2019-03-06T06:40:54.401Z,33.20
2019-03-06T06:42:30.472Z,35.07
2019-03-06T06:44:06.600Z,35.10
2019-03-06T06:45:42.576Z,32.77
2019-03-06T06:47:18.722Z,32.13
2019-03-06T06:48:54.708Z,37.47
2019-03-06T06:50:30.861Z,37.73
2019-03-06T06:52:37.157Z,29.73
2019-03-06T06:54:29.689Z,39.70
2019-03-06T06:56:42.010Z,37.53
2019-03-06T06:58:40.699Z,39.13
2019-03-06T07:00:52.473Z,36.03
2019-03-06T07:03:03.515Z,34.63
2019-03-06T07:04:57.602Z,43.93
2019-03-06T07:06:35.239Z,38.90
2019-03-06T07:08:11.019Z,35.57
2019-03-06T07:10:04.931Z,33.67
2019-03-06T07:11:42.985Z,35.40
2019-03-06T07:13:20.865Z,34.17
2019-03-06T07:15:02.853Z,34.60
2019-03-06T07:16:49.431Z,33.57
2019-03-06T07:18:29.860Z,36.23
2019-03-06T07:20:09.351Z,33.50
2019-03-06T07:21:48.169Z,33.07
2019-03-06T07:23:26.010Z,41.80
2019-03-06T07:25:03.853Z,34.43
2019-03-06T07:26:49.164Z,42.43
2019-03-06T07:28:32.590Z,41.17
2019-03-06T07:30:16.613Z,38.80
2019-03-06T07:32:00.571Z,36.23
2019-03-06T07:33:47.779Z,35.47
2019-03-06T07:35:58.520Z,37.43
2019-03-06T07:37:40.685Z,40.53
2019-03-06T07:39:24.080Z,36.10
2019-03-06T07:41:18.025Z,38.07
2019-03-06T07:42:55.855Z,37.17
2019-03-06T07:44:34.604Z,38.93
2019-03-06T07:46:19.471Z,36.63
2019-03-06T07:48:09.453Z,38.03
2019-03-06T07:50:00.960Z,40.43
2019-03-06T07:51:52.058Z,38.03
2019-03-06T07:53:59.498Z,38.73
2019-03-06T07:55:54.587Z,36.63
2019-03-06T07:57:32.354Z,39.17
2019-03-06T07:59:08.556Z,34.83
2019-03-06T08:00:44.658Z,36.97
2019-03-06T08:03:00.426Z,33.80
2019-03-06T08:04:36.559Z,31.27
2019-03-06T08:06:12.694Z,29.13
2019-03-06T08:07:48.861Z,32.90
2019-03-06T08:09:25.564Z,32.40
2019-03-06T08:11:02.806Z,30.23
2019-03-06T08:12:40.504Z,35.93
2019-03-06T08:14:34.611Z,26.57
2019-03-06T08:16:12.404Z,25.63
2019-03-06T08:17:56.204Z,30.67
2019-03-06T08:19:46.148Z,28.57
2019-03-06T08:21:40.583Z,26.10
2019-03-06T08:23:27.243Z,27.60
2019-03-06T08:25:11.063Z,25.00
2019-03-06T08:26:47.304Z,25.10
2019-03-06T08:28:23.381Z,24.80
2019-03-06T08:29:59.417Z,22.83
2019-03-06T08:31:37.300Z,25.47
2019-03-06T08:33:18.284Z,28.33
2019-03-06T08:34:51.551Z,31.63
2019-03-06T08:36:27.689Z,34.77
2019-03-06T08:38:03.829Z,34.77
2019-03-06T08:39:40.051Z,29.67
2019-03-06T08:41:16.280Z,23.57
2019-03-06T08:42:52.502Z,24.13
2019-03-06T08:44:28.620Z,23.93
2019-03-06T08:46:15.689Z,27.77
2019-03-06T08:47:51.793Z,23.93
2019-03-06T08:49:41.895Z,22.00
2019-03-06T08:51:28.650Z,23.70
2019-03-06T08:53:18.867Z,25.07
2019-03-06T08:55:05.404Z,28.27
2019-03-06T08:56:58.240Z,23.97
2019-03-06T08:58:41.786Z,24.33
2019-03-06T09:00:26.182Z,23.17
2019-03-06T09:02:04.032Z,24.67
2019-03-06T09:03:47.524Z,25.23
2019-03-06T09:05:25.278Z,19.83
2019-03-06T09:07:19.248Z,19.93
2019-03-06T09:09:10.507Z,23.13
2019-03-06T09:10:48.187Z,17.77
2019-03-06T09:12:26.174Z,20.37
2019-03-06T09:14:06.705Z,21.10
2019-03-06T09:15:42.609Z,20.77
2019-03-06T09:17:23.344Z,23.00
2019-03-06T09:19:01.104Z,29.60
2019-03-06T09:20:44.903Z,25.30
2019-03-06T09:22:25.388Z,18.33
2019-03-06T09:24:11.849Z,18.70
2019-03-06T09:25:50.494Z,25.10
2019-03-06T09:27:37.375Z,22.60
2019-03-06T09:29:21.134Z,21.33
2019-03-06T09:31:01.549Z,23.57
2019-03-06T09:32:45.450Z,22.00
2019-03-06T09:34:29.121Z,19.83
2019-03-06T09:36:16.036Z,18.57
2019-03-06T09:38:11.207Z,23.33
2019-03-06T09:39:49.432Z,18.63
2019-03-06T09:41:32.884Z,18.73
2019-03-06T09:43:17.788Z,20.20
2019-03-06T09:44:55.470Z,14.47
2019-03-06T09:46:33.320Z,14.87
2019-03-06T09:48:12.735Z,17.07
2019-03-06T09:49:50.690Z,16.13
2019-03-06T09:51:31.225Z,17.87
2019-03-06T09:53:24.407Z,17.50
2019-03-06T09:55:02.078Z,17.07
2019-03-06T09:56:51.918Z,21.83
2019-03-06T09:58:29.698Z,16.33
2019-03-06T10:00:12.287Z,16.83
2019-03-06T10:02:07.062Z,20.57
2019-03-06T10:03:54.025Z,17.63
2019-03-06T10:05:40.985Z,23.03
2019-03-06T10:07:18.712Z,16.50
2019-03-06T10:08:59.573Z,18.80
2019-03-06T10:10:46.013Z,17.23
2019-03-06T10:12:19.796Z,17.93
2019-03-06T10:14:06.852Z,19.60
2019-03-06T10:15:45.272Z,16.60
2019-03-06T10:17:26.109Z,16.30
2019-03-06T10:19:08.779Z,15.70
2019-03-06T10:20:45.019Z,20.13
2019-03-06T10:22:21.232Z,20.00
2019-03-06T10:23:57.439Z,17.27
2019-03-06T10:25:33.832Z,14.97
2019-03-06T10:27:10.252Z,15.97
2019-03-06T10:28:46.453Z,20.33
2019-03-06T10:30:22.875Z,15.23
2019-03-06T10:31:59.465Z,20.87
2019-03-06T10:33:35.948Z,14.73
2019-03-06T10:35:16.010Z,15.03
2019-03-06T10:36:52.231Z,16.57
2019-03-06T10:38:28.431Z,15.37
2019-03-06T10:40:07.048Z,20.57
2019-03-06T10:41:43.251Z,16.47
2019-03-06T10:43:21.014Z,14.90
2019-03-06T10:44:57.223Z,16.07
2019-03-06T10:46:33.350Z,12.77
2019-03-06T10:48:09.699Z,16.07
2019-03-06T10:49:45.840Z,13.13
2019-03-06T10:51:21.976Z,14.13
2019-03-06T10:52:58.192Z,14.90
2019-03-06T10:54:37.893Z,15.73
2019-03-06T10:56:12.226Z,16.50
2019-03-06T10:57:48.661Z,16.23
2019-03-06T10:59:24.702Z,15.90
2019-03-06T11:01:00.998Z,16.40
2019-03-06T11:02:37.280Z,13.20
2019-03-06T11:04:15.238Z,12.13
2019-03-06T11:05:51.716Z,14.33
2019-03-06T11:07:27.923Z,13.47
2019-03-06T11:09:05.909Z,14.43
2019-03-06T11:10:42.118Z,14.83
2019-03-06T11:12:18.257Z,13.40
2019-03-06T11:13:54.398Z,14.57
2019-03-06T11:15:30.922Z,15.60
2019-03-06T11:17:07.131Z,11.00
2019-03-06T11:18:43.756Z,12.70
2019-03-06T11:20:35.641Z,13.40
2019-03-06T11:22:11.952Z,13.77
2019-03-06T11:23:48.166Z,16.03
2019-03-06T11:25:26.848Z,15.47
2019-03-06T11:27:03.999Z,15.37
2019-03-06T11:28:40.524Z,16.47
2019-03-06T11:30:30.053Z,12.43
2019-03-06T11:32:07.738Z,12.83
2019-03-06T11:33:44.347Z,10.63
2019-03-06T11:35:24.020Z,11.50
2019-03-06T11:37:00.333Z,13.50
2019-03-06T11:38:36.644Z,15.63
2019-03-06T11:40:18.840Z,13.37
2019-03-06T11:41:55.224Z,13.63
2019-03-06T11:43:31.444Z,12.77
2019-03-06T11:45:11.823Z,13.60
2019-03-06T11:46:48.025Z,13.47
2019-03-06T11:48:24.562Z,13.80
2019-03-06T11:50:00.691Z,15.77
2019-03-06T11:51:36.899Z,14.37
2019-03-06T11:53:13.109Z,14.90
2019-03-06T11:54:49.351Z,17.33
2019-03-06T11:56:25.553Z,16.23
2019-03-06T11:58:02.036Z,17.13
2019-03-06T11:59:40.859Z,14.60
2019-03-06T12:01:19.817Z,14.33
2019-03-06T12:02:55.928Z,13.53
2019-03-06T12:04:32.106Z,13.33
2019-03-06T12:06:08.512Z,14.97
2019-03-06T12:07:44.616Z,14.57
2019-03-06T12:09:27.546Z,13.17
2019-03-06T12:11:03.681Z,16.20
2019-03-06T12:12:39.822Z,18.43
2019-03-06T12:14:16.020Z,15.07
2019-03-06T12:15:53.429Z,12.37
2019-03-06T12:17:29.640Z,17.33
2019-03-06T12:19:05.760Z,26.07
2019-03-06T12:20:41.972Z,12.63
2019-03-06T12:22:18.103Z,16.53
2019-03-06T12:23:54.219Z,17.17
2019-03-06T12:25:30.720Z,13.97
2019-03-06T12:27:07.237Z,16.37
2019-03-06T12:28:43.347Z,20.40
2019-03-06T12:30:21.132Z,14.13
2019-03-06T12:31:57.431Z,19.33
2019-03-06T12:33:33.926Z,23.83
2019-03-06T12:35:14.361Z,13.13
2019-03-06T12:36:50.573Z,16.10
2019-03-06T12:38:27.293Z,16.20
2019-03-06T12:40:11.948Z,15.17
2019-03-06T12:41:41.772Z,12.97
2019-03-06T12:43:24.331Z,16.00
2019-03-06T12:45:00.639Z,16.27
2019-03-06T12:46:36.851Z,12.30
2019-03-06T12:48:18.545Z,13.70
2019-03-06T12:49:54.753Z,15.63
2019-03-06T12:51:30.897Z,14.57
2019-03-06T12:53:07.121Z,13.97
2019-03-06T12:54:43.425Z,13.33
2019-03-06T12:56:19.638Z,13.60
2019-03-06T12:57:59.446Z,15.10
2019-03-06T12:59:33.621Z,17.73
2019-03-06T13:01:09.830Z,17.50
2019-03-06T13:02:46.234Z,17.27
2019-03-06T13:04:22.347Z,11.73
2019-03-06T13:05:58.557Z,16.33
2019-03-06T13:07:34.600Z,12.67
2019-03-06T13:09:16.962Z,13.07
2019-03-06T13:10:53.228Z,14.47
2019-03-06T13:12:29.369Z,12.90
2019-03-06T13:14:06.906Z,12.47
2019-03-06T13:15:43.102Z,14.60
2019-03-06T13:17:19.246Z,15.07
2019-03-06T13:18:55.549Z,20.10
2019-03-06T13:20:31.684Z,17.40
2019-03-06T13:22:11.252Z,17.87
2019-03-06T13:23:45.723Z,16.63
2019-03-06T13:25:25.608Z,16.67
2019-03-06T13:27:01.650Z,15.13
2019-03-06T13:28:37.723Z,19.13
2019-03-06T13:30:16.965Z,15.17
2019-03-06T13:31:53.190Z,18.83
2019-03-06T13:33:40.339Z,17.50
2019-03-06T13:35:16.958Z,14.50
2019-03-06T13:36:53.267Z,20.13
2019-03-06T13:38:29.355Z,14.10
2019-03-06T13:40:07.463Z,15.17
2019-03-06T13:41:43.457Z,18.17
2019-03-06T13:43:19.771Z,17.70
2019-03-06T13:44:55.846Z,18.27
2019-03-06T13:46:32.052Z,12.97
2019-03-06T13:48:08.182Z,15.80
2019-03-06T13:49:44.396Z,16.90
2019-03-06T13:51:21.459Z,15.17
2019-03-06T13:52:58.065Z,12.83
2019-03-06T13:54:34.198Z,13.47
2019-03-06T13:56:10.645Z,13.17
2019-03-06T13:57:47.511Z,13.23
2019-03-06T13:59:23.903Z,10.77
2019-03-06T14:01:00.196Z,17.93
2019-03-06T14:02:37.266Z,13.63
2019-03-06T14:04:13.380Z,20.20
2019-03-06T14:05:49.519Z,14.80
2019-03-06T14:07:25.939Z,14.60
2019-03-06T14:09:04.859Z,21.07
2019-03-06T14:10:41.164Z,31.90
2019-03-06T14:12:17.207Z,25.47
2019-03-06T14:13:54.542Z,23.47
2019-03-06T14:15:30.795Z,19.27
2019-03-06T14:17:08.314Z,23.00
2019-03-06T14:18:44.927Z,25.27
2019-03-06T14:20:23.311Z,22.67
2019-03-06T14:22:19.032Z,16.77
2019-03-06T14:23:56.788Z,18.27
2019-03-06T14:25:33.698Z,33.00
2019-03-06T14:27:10.678Z,36.13
2019-03-06T14:28:47.012Z,34.63
2019-03-06T14:30:32.994Z,30.23
2019-03-06T14:32:14.608Z,40.83
2019-03-06T14:33:47.108Z,27.00
2019-03-06T14:35:23.917Z,32.20
2019-03-06T14:37:00.044Z,14.73
2019-03-06T14:38:36.455Z,13.33
2019-03-06T14:40:34.177Z,13.13
2019-03-06T14:42:10.527Z,13.97
2019-03-06T14:43:46.797Z,13.73
2019-03-06T14:45:22.915Z,15.40
2019-03-06T14:46:59.052Z,12.40
2019-03-06T14:48:35.224Z,11.77
2019-03-06T14:50:11.533Z,23.13
2019-03-06T14:51:47.855Z,14.30
2019-03-06T14:53:23.992Z,22.07
2019-03-06T14:55:00.069Z,20.70
2019-03-06T14:56:36.309Z,21.33
2019-03-06T14:58:12.817Z,15.53
2019-03-06T14:59:48.902Z,17.67
2019-03-06T15:01:24.896Z,17.83
2019-03-06T15:03:01.132Z,15.77
2019-03-06T15:04:37.230Z,19.50
2019-03-06T15:06:13.377Z,23.97
2019-03-06T15:07:49.856Z,27.13
2019-03-06T15:09:26.962Z,30.40
2019-03-06T15:11:03.026Z,19.93
2019-03-06T15:12:39.238Z,19.93
2019-03-06T15:14:15.329Z,17.50
2019-03-06T15:15:51.584Z,19.43
2019-03-06T15:17:27.718Z,19.83
2019-03-06T15:19:03.789Z,22.00
2019-03-06T15:20:39.896Z,23.23
2019-03-06T15:22:16.025Z,21.10
2019-03-06T15:23:52.230Z,20.97
2019-03-06T15:25:30.551Z,21.47
2019-03-06T15:27:06.656Z,23.13
2019-03-06T15:28:43.329Z,22.13
2019-03-06T15:30:20.717Z,24.17
2019-03-06T15:31:56.855Z,25.63
2019-03-06T15:33:34.261Z,27.20
2019-03-06T15:35:12.274Z,23.57
2019-03-06T15:36:50.531Z,41.73
2019-03-06T15:38:26.849Z,36.37
2019-03-06T15:40:03.451Z,28.50
2019-03-06T15:41:39.441Z,30.27
2019-03-06T15:43:16.600Z,29.53
2019-03-06T15:44:52.937Z,26.17
2019-03-06T15:46:28.995Z,30.07
2019-03-06T15:48:05.777Z,27.60
2019-03-06T15:49:41.858Z,36.03
2019-03-06T15:51:18.264Z,34.77
2019-03-06T15:52:54.458Z,33.23
2019-03-06T15:54:30.667Z,26.90
2019-03-06T15:56:06.987Z,31.97
2019-03-06T15:57:43.079Z,32.30
2019-03-06T15:59:19.354Z,36.97
2019-03-06T16:00:55.556Z,48.70
2019-03-06T16:02:31.873Z,52.87
2019-03-06T16:04:08.708Z,48.97
2019-03-06T16:05:45.315Z,50.37
2019-03-06T16:07:21.556Z,54.70
2019-03-06T16:08:57.752Z,57.83
2019-03-06T16:10:34.753Z,65.60
2019-03-06T16:12:12.326Z,62.53
2019-03-06T16:13:48.763Z,64.20
2019-03-06T16:15:28.972Z,67.27
2019-03-06T16:17:05.075Z,65.77
2019-03-06T16:18:41.224Z,76.70
2019-03-06T16:20:22.668Z,79.07
2019-03-06T16:21:59.083Z,88.00
2019-03-06T16:23:35.507Z,94.97
2019-03-06T16:25:11.730Z,110.83
2019-03-06T16:26:48.070Z,115.07
2019-03-06T16:28:24.454Z,109.90
2019-03-06T16:30:00.764Z,121.13
2019-03-06T16:31:36.980Z,128.80
2019-03-06T16:33:13.181Z,143.03
2019-03-06T16:34:49.475Z,146.17
2019-03-06T16:36:25.704Z,120.03
2019-03-06T16:38:01.787Z,127.83
2019-03-06T16:39:39.478Z,126.13
2019-03-06T16:41:17.122Z,101.00
2019-03-06T16:42:54.122Z,91.57
2019-03-06T16:44:31.122Z,98.30
2019-03-06T16:46:07.451Z,133.40
2019-03-06T16:47:43.755Z,186.40
2019-03-06T16:49:19.954Z,180.30
2019-03-06T16:50:56.169Z,190.77
2019-03-06T16:52:32.393Z,166.80
2019-03-06T16:54:08.624Z,116.40
2019-03-06T16:55:44.835Z,125.00
2019-03-06T16:57:21.068Z,138.93
2019-03-06T16:58:57.141Z,136.97
2019-03-06T17:00:37.817Z,126.90
2019-03-06T17:02:14.028Z,123.92
2019-03-06T17:03:50.223Z,138.43
2019-03-06T17:05:26.646Z,123.43
2019-03-06T17:07:03.092Z,110.47
2019-03-06T17:08:39.392Z,121.07
2019-03-06T17:10:18.683Z,138.90
2019-03-06T17:11:54.839Z,199.13
2019-03-06T17:13:31.082Z,207.33
2019-03-06T17:15:10.220Z,214.60
2019-03-06T17:16:46.443Z,146.07
2019-03-06T17:18:22.772Z,170.87
2019-03-06T17:19:58.917Z,191.83
2019-03-06T17:21:35.423Z,189.17
2019-03-06T17:23:11.558Z,219.93
2019-03-06T17:24:47.911Z,197.60
2019-03-06T17:26:24.116Z,221.70
2019-03-06T17:28:00.341Z,295.33
2019-03-06T17:29:36.715Z,143.10
2019-03-06T17:31:13.097Z,133.13
2019-03-06T17:33:14.611Z,102.70
2019-03-06T17:34:51.049Z,126.93
2019-03-06T17:36:27.181Z,130.00
2019-03-06T17:38:03.887Z,136.03
2019-03-06T17:39:41.323Z,127.93
2019-03-06T17:41:17.638Z,106.60
2019-03-06T17:42:53.740Z,108.30
2019-03-06T17:44:29.866Z,92.77
2019-03-06T17:46:06.643Z,99.27
2019-03-06T17:47:42.706Z,90.77
2019-03-06T17:49:18.906Z,89.73
2019-03-06T17:50:55.411Z,109.23
2019-03-06T17:52:31.951Z,143.90
2019-03-06T17:54:10.454Z,150.87
2019-03-06T17:55:46.488Z,161.10
2019-03-06T17:57:22.633Z,171.77
2019-03-06T17:58:58.902Z,172.30
2019-03-06T18:00:43.129Z,129.47
2019-03-06T18:02:19.339Z,109.70
2019-03-06T18:03:57.089Z,83.23
2019-03-06T18:05:33.227Z,75.43
2019-03-06T18:07:09.510Z,75.00
2019-03-06T18:08:45.687Z,66.30
2019-03-06T18:10:22.000Z,66.23
2019-03-06T18:11:58.306Z,81.27
2019-03-06T18:13:34.333Z,86.57
2019-03-06T18:15:14.399Z,72.93
2019-03-06T18:16:50.668Z,69.67
2019-03-06T18:18:26.808Z,95.47
2019-03-06T18:20:03.020Z,87.67
2019-03-06T18:21:39.073Z,85.77
2019-03-06T18:23:15.288Z,99.83
2019-03-06T18:24:51.491Z,93.53
2019-03-06T18:26:27.655Z,97.30
2019-03-06T18:28:03.762Z,113.47
2019-03-06T18:29:39.858Z,59.77
2019-03-06T18:31:16.069Z,103.63
2019-03-06T18:32:52.380Z,155.30
2019-03-06T18:34:28.610Z,150.33
2019-03-06T18:36:04.906Z,229.50
2019-03-06T18:37:41.032Z,193.67
2019-03-06T18:39:17.931Z,136.63
2019-03-06T18:40:54.181Z,144.63
2019-03-06T18:42:30.318Z,101.27
2019-03-06T18:44:06.705Z,77.03
2019-03-06T18:45:42.840Z,97.73
2019-03-06T18:47:19.051Z,147.13
2019-03-06T18:48:55.198Z,162.73
2019-03-06T18:50:31.408Z,133.83
2019-03-06T18:52:07.641Z,163.97
2019-03-06T18:53:43.828Z,211.60
2019-03-06T18:55:21.732Z,255.13
2019-03-06T18:56:57.799Z,150.40
2019-03-06T18:58:33.943Z,83.87
2019-03-06T19:00:20.042Z,103.37
2019-03-06T19:01:56.211Z,78.77
2019-03-06T19:03:32.586Z,94.37
2019-03-06T19:05:10.877Z,100.77
2019-03-06T19:06:46.932Z,87.23
2019-03-06T19:08:31.118Z,104.60
2019-03-06T19:10:01.125Z,107.53
2019-03-06T19:11:37.164Z,134.07
2019-03-06T19:13:13.567Z,118.97
2019-03-06T19:14:49.828Z,108.40
2019-03-06T19:16:26.047Z,125.10
2019-03-06T19:18:02.350Z,130.37
2019-03-06T19:19:38.694Z,101.33
2019-03-06T19:21:15.055Z,95.73
2019-03-06T19:22:52.753Z,116.93
2019-03-06T19:24:28.788Z,102.20
2019-03-06T19:26:05.119Z,119.00
2019-03-06T19:27:41.336Z,103.33
2019-03-06T19:29:17.463Z,112.07
2019-03-06T19:30:53.605Z,100.27
2019-03-06T19:32:29.838Z,93.57
2019-03-06T19:34:06.050Z,94.67
2019-03-06T19:35:42.174Z,107.30
2019-03-06T19:37:18.597Z,95.87
2019-03-06T19:38:54.657Z,100.97
2019-03-06T19:40:30.693Z,100.97
2019-03-06T19:42:07.203Z,106.90
2019-03-06T19:43:44.729Z,89.07
2019-03-06T19:45:27.326Z,96.87
2019-03-06T19:47:03.637Z,101.20
2019-03-06T19:48:39.826Z,104.77
2019-03-06T19:50:19.336Z,193.47
2019-03-06T19:51:55.482Z,246.57
2019-03-06T19:53:31.627Z,134.67
2019-03-06T19:55:11.256Z,158.20
2019-03-06T19:56:48.263Z,85.50
2019-03-06T19:58:24.487Z,98.80
2019-03-06T20:00:00.736Z,106.83
2019-03-06T20:01:36.843Z,83.00
2019-03-06T20:03:13.042Z,72.63
2019-03-06T20:04:49.535Z,83.40
2019-03-06T20:06:27.330Z,82.17
2019-03-06T20:08:05.511Z,81.47
2019-03-06T20:09:43.305Z,101.70
2019-03-06T20:11:19.524Z,110.23
2019-03-06T20:12:56.017Z,114.30
2019-03-06T20:14:32.241Z,123.70
2019-03-06T20:16:08.448Z,136.60
2019-03-06T20:17:44.591Z,107.70
2019-03-06T20:19:20.772Z,141.33
2019-03-06T20:20:57.347Z,76.13
2019-03-06T20:22:33.415Z,94.03
2019-03-06T20:24:09.772Z,108.67
2019-03-06T20:25:46.240Z,118.17
2019-03-06T20:27:22.334Z,86.13
2019-03-06T20:28:58.678Z,87.43
2019-03-06T20:30:34.904Z,96.60
2019-03-06T20:32:11.149Z,121.20
2019-03-06T20:33:47.346Z,80.03
2019-03-06T20:35:25.661Z,80.93
2019-03-06T20:37:01.907Z,85.87
2019-03-06T20:38:38.175Z,99.87
2019-03-06T20:40:14.386Z,98.50
2019-03-06T20:41:50.602Z,122.60
2019-03-06T20:43:26.666Z,105.13
2019-03-06T20:45:02.926Z,79.90
2019-03-06T20:46:39.032Z,105.20
2019-03-06T20:48:15.406Z,66.87
2019-03-06T20:49:51.481Z,81.80
2019-03-06T20:51:27.777Z,69.37
2019-03-06T20:53:04.139Z,113.17
2019-03-06T20:54:40.965Z,91.37
2019-03-06T20:56:19.134Z,79.23
2019-03-06T20:57:55.375Z,68.47
2019-03-06T20:59:34.358Z,55.53